William P Hobby Airport
KHOU : now visible

Airfield :











YOU CAN JOIN US ON...

 
LOGIN :

Register | Disclaimer

   EN    FR    IT 

 









Legend :    VFR   Marginal VFR   IFR   Intensive IFR   Very Intensive IFR
Visi :
Ceiling :
>= 8 km
>= 3000ft
5 to 8 km
1000 to 3000 ft
1500m to 5 km
500 to 1000 ft
800 to 1500m
200 to 500 ft
< 800m
< 200 ft
Symbols :   Thunderstorms  Fog  Heavy snow  Heavy precipitations  Wind > 20 kt






- Airport Elevation : 46 ft
- IATA code : HOU


KHOU - William P Hobby

CURRENT METAR :
  • 271453Z 36009KT 6SM HZ OVC007 19/17 A2999 RMK AO2 SLP161 T01940167 51013

EXPIRED METARs :
  • 271353Z 35011KT 7SM OVC007 19/16 A2998 RMK AO2 SLP156 T01890161
  • 271253Z 34009KT 9SM OVC008 18/16 A2997 RMK AO2 SLP152 T01830156

TAF KHOU
Valid from the 27 at 15:00 until the 28 at 12:00 UTC


271435Z 2715/2812 36008KT P6SM BKN007 OVC015
FM271700 02008KT P6SM BKN020 BKN050
FM280200 02009KT P6SM OVC010
FM280600 02009KT 6SM -DZ BR VCSH OVC007
KZHU FIR / North America



MET'MAP, your aeronautical weather chart ! - Copyright ORBIFLY December 2007 - Disclaimer

ORBIFLY MET'MAP TEAM :

Programming & Development : Alexandra Zaïnal
Concept & original design : Baudouin d'Aumeries
Assistance for programming : Marc-Olivier Méhu
Technical & hardware support : Manuel Goepfert

Contact : metmap@orbifly.com




SOURCES & CREDITS :

   NOAA       Earth
Advisory